createdAt,value
2022-10-15T00:00:33.240Z,0.00
2022-10-15T00:01:33.417Z,0.00
2022-10-15T00:02:26.338Z,0.00
2022-10-15T00:03:27.085Z,0.00
2022-10-15T00:04:26.119Z,0.00
2022-10-15T00:05:26.047Z,0.00
2022-10-15T00:06:27.067Z,0.00
2022-10-15T00:07:26.379Z,0.00
2022-10-15T00:08:26.061Z,0.00
2022-10-15T00:09:41.328Z,0.00
2022-10-15T00:10:26.009Z,0.00
2022-10-15T00:11:41.623Z,0.00
2022-10-15T00:12:26.207Z,0.00
2022-10-15T00:13:26.001Z,0.00
2022-10-15T00:14:25.973Z,0.00
2022-10-15T00:15:26.185Z,0.00
2022-10-15T00:16:25.952Z,0.00
2022-10-15T00:17:26.221Z,0.00
2022-10-15T00:18:25.932Z,0.00
2022-10-15T00:19:25.932Z,0.00
2022-10-15T00:20:25.899Z,0.00
2022-10-15T00:21:25.892Z,0.00
2022-10-15T00:22:28.916Z,0.00
2022-10-15T00:23:25.897Z,0.00
2022-10-15T00:24:26.067Z,0.00
2022-10-15T00:25:26.080Z,0.00
2022-10-15T00:26:26.067Z,0.00
2022-10-15T00:27:28.870Z,0.00
2022-10-15T00:28:28.506Z,0.00
2022-10-15T00:29:26.088Z,0.00
2022-10-15T00:30:26.842Z,0.00
2022-10-15T00:31:28.839Z,0.00
2022-10-15T00:32:47.811Z,0.00
2022-10-15T00:33:25.765Z,0.00
2022-10-15T00:34:26.017Z,0.00
2022-10-15T00:35:25.764Z,0.00
2022-10-15T00:36:25.965Z,0.00
2022-10-15T00:37:25.995Z,0.00
2022-10-15T00:38:25.942Z,0.00
2022-10-15T00:39:26.077Z,0.00
2022-10-15T00:40:32.969Z,0.00
2022-10-15T00:41:41.314Z,0.00
2022-10-15T00:42:25.956Z,0.00
2022-10-15T00:43:25.688Z,0.00
2022-10-15T00:44:25.939Z,0.00
2022-10-15T00:45:28.687Z,0.00
2022-10-15T00:46:25.638Z,0.00
2022-10-15T00:47:25.706Z,0.00
2022-10-15T00:48:25.624Z,0.00
2022-10-15T00:49:28.906Z,0.00
2022-10-15T00:50:25.616Z,0.00
2022-10-15T00:51:25.584Z,0.00
2022-10-15T00:52:25.975Z,0.00
2022-10-15T00:53:25.808Z,0.00
2022-10-15T00:54:25.590Z,0.00
2022-10-15T00:55:25.799Z,0.00
2022-10-15T00:56:32.767Z,0.00
2022-10-15T00:57:25.528Z,0.00
2022-10-15T00:58:25.519Z,0.00
2022-10-15T00:59:26.510Z,0.00
2022-10-15T01:00:25.562Z,0.00
2022-10-15T01:01:25.593Z,0.00
2022-10-15T01:02:32.892Z,0.00
2022-10-15T01:03:49.490Z,0.00
2022-10-15T01:04:41.159Z,0.00
2022-10-15T01:05:25.709Z,0.00
2022-10-15T01:06:32.541Z,0.00
2022-10-15T01:07:32.905Z,0.00
2022-10-15T01:08:25.417Z,0.00
2022-10-15T01:09:25.397Z,0.00
2022-10-15T01:10:25.477Z,0.00
2022-10-15T01:11:25.388Z,0.00
2022-10-15T01:12:25.605Z,0.00
2022-10-15T01:13:25.600Z,0.00
2022-10-15T01:14:25.601Z,0.00
2022-10-15T01:15:25.580Z,0.00
2022-10-15T01:16:26.581Z,0.00
2022-10-15T01:17:40.688Z,0.00
2022-10-15T01:18:28.572Z,0.00
2022-10-15T01:19:28.567Z,0.00
2022-10-15T01:20:25.541Z,0.00
2022-10-15T01:21:28.319Z,0.00
2022-10-15T01:22:25.281Z,0.00
2022-10-15T01:23:26.295Z,0.00
2022-10-15T01:24:32.344Z,0.00
2022-10-15T01:25:25.298Z,0.00
2022-10-15T01:26:25.475Z,0.00
2022-10-15T01:27:26.558Z,0.00
2022-10-15T01:28:26.468Z,0.00
2022-10-15T01:29:25.209Z,0.00
2022-10-15T01:30:25.453Z,0.00
2022-10-15T01:31:25.417Z,0.00
2022-10-15T01:32:25.412Z,0.00
2022-10-15T01:33:25.158Z,0.00
2022-10-15T01:34:26.394Z,0.00
2022-10-15T01:35:26.169Z,0.00
2022-10-15T01:36:25.141Z,0.00
2022-10-15T01:37:25.652Z,0.00
2022-10-15T01:38:25.354Z,0.00
2022-10-15T01:39:25.095Z,0.00
2022-10-15T01:40:25.085Z,0.00
2022-10-15T01:41:25.063Z,0.00
2022-10-15T01:42:25.114Z,0.00
2022-10-15T01:43:25.093Z,0.00
2022-10-15T01:44:40.406Z,0.00
2022-10-15T01:45:25.011Z,0.00
2022-10-15T01:46:25.037Z,0.00
2022-10-15T01:47:25.608Z,0.00
2022-10-15T01:48:25.025Z,0.00
2022-10-15T01:49:25.234Z,0.00
2022-10-15T01:50:25.220Z,0.00
2022-10-15T01:51:32.058Z,0.00
2022-10-15T01:52:26.268Z,0.00
2022-10-15T01:53:25.008Z,0.00
2022-10-15T01:54:25.169Z,0.00
2022-10-15T01:55:25.210Z,0.00
2022-10-15T01:56:28.185Z,0.00
2022-10-15T01:57:25.361Z,0.00
2022-10-15T01:58:24.927Z,0.00
2022-10-15T01:59:25.156Z,0.00
2022-10-15T02:00:31.977Z,0.00
2022-10-15T02:01:25.904Z,0.00
2022-10-15T02:02:25.506Z,0.00
2022-10-15T02:03:27.887Z,0.00
2022-10-15T02:04:25.090Z,0.00
2022-10-15T02:05:25.085Z,0.00
2022-10-15T02:06:24.853Z,0.00
2022-10-15T02:07:27.848Z,0.00
2022-10-15T02:08:24.802Z,0.00
2022-10-15T02:09:24.770Z,0.00
2022-10-15T02:10:25.029Z,0.00
2022-10-15T02:11:24.989Z,0.00
2022-10-15T02:12:28.028Z,0.00
2022-10-15T02:13:40.172Z,0.00
2022-10-15T02:14:24.775Z,0.00
2022-10-15T02:15:24.988Z,0.00
2022-10-15T02:16:24.955Z,0.00
2022-10-15T02:17:25.713Z,0.00
2022-10-15T02:18:24.929Z,0.00
2022-10-15T02:19:27.959Z,0.00
2022-10-15T02:20:24.928Z,0.00
2022-10-15T02:21:24.661Z,0.00
2022-10-15T02:22:25.294Z,0.00
2022-10-15T02:23:48.689Z,0.00
2022-10-15T02:24:24.874Z,0.00
2022-10-15T02:25:24.654Z,0.00
2022-10-15T02:26:24.843Z,0.00
2022-10-15T02:27:27.628Z,0.00
2022-10-15T02:28:24.626Z,0.00
2022-10-15T02:29:25.597Z,0.00
2022-10-15T02:30:24.817Z,0.00
2022-10-15T02:31:24.575Z,0.00
2022-10-15T02:32:31.924Z,0.00
2022-10-15T02:33:39.798Z,0.00
2022-10-15T02:34:25.781Z,0.00
2022-10-15T02:35:24.801Z,0.00
2022-10-15T02:36:24.501Z,0.00
2022-10-15T02:37:45.503Z,0.00
2022-10-15T02:38:24.725Z,0.00
2022-10-15T02:39:25.724Z,0.00
2022-10-15T02:40:24.477Z,0.00
2022-10-15T02:41:24.517Z,0.00
2022-10-15T02:42:25.063Z,0.00
2022-10-15T02:43:24.459Z,0.00
2022-10-15T02:44:25.712Z,0.00
2022-10-15T02:45:24.450Z,0.00
2022-10-15T02:46:24.426Z,0.00
2022-10-15T02:48:24.634Z,0.00
2022-10-15T02:49:25.624Z,0.00
2022-10-15T02:50:27.413Z,0.00
2022-10-15T02:51:24.619Z,0.00
2022-10-15T02:52:24.598Z,0.00
2022-10-15T02:53:31.465Z,0.00
2022-10-15T02:54:24.603Z,0.00
2022-10-15T02:55:31.541Z,0.00
2022-10-15T02:56:24.395Z,0.00
2022-10-15T02:57:24.590Z,0.00
2022-10-15T02:58:24.287Z,0.00
2022-10-15T02:59:25.522Z,0.00
2022-10-15T03:00:25.518Z,0.00
2022-10-15T03:01:25.306Z,0.00
2022-10-15T03:02:24.276Z,0.00
2022-10-15T03:03:24.456Z,0.00
2022-10-15T03:04:25.475Z,0.00
2022-10-15T03:05:24.459Z,0.00
2022-10-15T03:06:27.284Z,0.00
2022-10-15T03:07:27.248Z,0.00
2022-10-15T03:08:24.449Z,0.00
2022-10-15T03:09:24.396Z,0.00
2022-10-15T03:10:24.439Z,0.00
2022-10-15T03:11:24.405Z,0.00
2022-10-15T03:12:31.434Z,0.00
2022-10-15T03:13:24.391Z,0.00
2022-10-15T03:14:39.429Z,0.00
2022-10-15T03:15:24.359Z,0.00
2022-10-15T03:16:25.140Z,0.00
2022-10-15T03:17:24.553Z,0.00
2022-10-15T03:18:24.112Z,0.00
2022-10-15T03:19:24.072Z,0.00
2022-10-15T03:20:39.397Z,0.00
2022-10-15T03:21:31.350Z,0.00
2022-10-15T03:22:27.121Z,0.00
2022-10-15T03:23:24.099Z,0.00
2022-10-15T03:24:24.027Z,0.00
2022-10-15T03:25:31.449Z,0.00
2022-10-15T03:26:24.016Z,0.00
2022-10-15T03:27:25.553Z,0.00
2022-10-15T03:28:24.032Z,0.00
2022-10-15T03:29:27.001Z,0.00
2022-10-15T03:30:23.955Z,0.00
2022-10-15T03:31:24.984Z,0.00
2022-10-15T03:32:23.976Z,0.00
2022-10-15T03:33:25.209Z,0.00
2022-10-15T03:34:24.161Z,0.00
2022-10-15T03:35:23.904Z,0.00
2022-10-15T03:36:27.154Z,0.00
2022-10-15T03:37:25.404Z,0.00
2022-10-15T03:38:24.120Z,0.00
2022-10-15T03:39:31.412Z,0.00
2022-10-15T03:40:24.116Z,0.00
2022-10-15T03:41:26.875Z,0.00
2022-10-15T03:42:25.137Z,0.00
2022-10-15T03:43:24.856Z,0.00
2022-10-15T03:44:23.826Z,0.00
2022-10-15T03:45:23.796Z,0.00
2022-10-15T03:46:23.808Z,0.00
2022-10-15T03:47:30.824Z,0.00
2022-10-15T03:48:30.870Z,0.00
2022-10-15T03:49:23.766Z,0.00
2022-10-15T03:50:23.981Z,0.00
2022-10-15T03:51:25.618Z,0.00
2022-10-15T03:52:31.181Z,0.00
2022-10-15T03:53:24.942Z,0.00
2022-10-15T03:54:23.750Z,0.00
2022-10-15T03:55:24.951Z,0.00
2022-10-15T03:56:44.706Z,0.00
2022-10-15T03:57:23.686Z,0.00
2022-10-15T03:58:23.673Z,0.00
2022-10-15T03:59:23.686Z,0.00
2022-10-15T04:00:24.894Z,0.00
2022-10-15T04:01:23.981Z,0.00
2022-10-15T04:02:26.897Z,0.00
2022-10-15T04:03:24.864Z,0.00
2022-10-15T04:04:23.819Z,0.00
2022-10-15T04:05:23.830Z,0.00
2022-10-15T04:06:23.593Z,0.00
2022-10-15T04:07:26.841Z,0.00
2022-10-15T04:08:23.802Z,0.00
2022-10-15T04:09:23.614Z,0.00
2022-10-15T04:10:23.555Z,0.00
2022-10-15T04:11:23.542Z,0.00
2022-10-15T04:12:30.825Z,0.00
2022-10-15T04:13:38.904Z,0.00
2022-10-15T04:14:26.553Z,0.00
2022-10-15T04:15:23.525Z,0.00
2022-10-15T04:16:24.752Z,0.00
2022-10-15T04:17:30.569Z,0.00
2022-10-15T04:18:23.467Z,0.00
2022-10-15T04:19:23.693Z,0.00
2022-10-15T04:20:23.688Z,0.00
2022-10-15T04:21:23.686Z,0.00
2022-10-15T04:22:23.948Z,0.00
2022-10-15T04:23:23.461Z,0.00
2022-10-15T04:24:23.645Z,0.00
2022-10-15T04:25:23.623Z,0.00
2022-10-15T04:26:23.635Z,0.00
2022-10-15T04:27:23.364Z,0.00
2022-10-15T04:28:23.652Z,0.00
2022-10-15T04:29:23.616Z,0.00
2022-10-15T04:30:24.587Z,0.00
2022-10-15T04:31:23.371Z,0.00
2022-10-15T04:32:23.795Z,0.00
2022-10-15T04:33:23.537Z,0.00
2022-10-15T04:34:23.321Z,0.00
2022-10-15T04:35:23.323Z,0.00
2022-10-15T04:36:38.745Z,0.00
2022-10-15T04:37:23.792Z,0.00
2022-10-15T04:38:23.497Z,0.00
2022-10-15T04:39:24.498Z,0.00
2022-10-15T04:40:30.672Z,0.00
2022-10-15T04:41:23.281Z,0.00
2022-10-15T04:42:23.480Z,0.00
2022-10-15T04:43:24.408Z,0.00
2022-10-15T04:44:24.427Z,0.00
2022-10-15T04:46:23.182Z,0.00
2022-10-15T04:47:23.519Z,0.00
2022-10-15T04:48:24.401Z,0.00
2022-10-15T04:49:26.164Z,0.00
2022-10-15T04:50:30.479Z,0.00
2022-10-15T04:51:23.111Z,0.00
2022-10-15T04:52:23.137Z,0.00
2022-10-15T04:53:23.107Z,0.00
2022-10-15T04:54:23.407Z,0.00
2022-10-15T04:55:23.088Z,0.00
2022-10-15T04:56:24.081Z,0.00
2022-10-15T04:57:23.572Z,0.00
2022-10-15T04:58:23.071Z,0.00
2022-10-15T04:59:23.051Z,0.00
2022-10-15T05:00:30.296Z,0.00
2022-10-15T05:01:23.243Z,0.00
2022-10-15T05:02:23.305Z,0.00
2022-10-15T05:03:24.278Z,0.00
2022-10-15T05:04:24.257Z,0.00
2022-10-15T05:05:30.303Z,0.00
2022-10-15T05:06:26.247Z,0.00
2022-10-15T05:07:23.389Z,0.00
2022-10-15T05:08:26.233Z,0.00
2022-10-15T05:09:30.195Z,0.00
2022-10-15T05:10:25.994Z,0.00
2022-10-15T05:11:30.005Z,0.00
2022-10-15T05:12:22.926Z,0.00
2022-10-15T05:13:22.922Z,0.00
2022-10-15T05:14:23.124Z,0.00
2022-10-15T05:15:23.894Z,0.00
2022-10-15T05:16:22.878Z,0.00
2022-10-15T05:17:38.146Z,0.00
2022-10-15T05:18:22.874Z,0.00
2022-10-15T05:19:44.081Z,0.00
2022-10-15T05:20:22.835Z,0.00
2022-10-15T05:21:22.834Z,0.00
2022-10-15T05:22:26.443Z,0.00
2022-10-15T05:23:22.806Z,4.00
2022-10-15T05:24:23.062Z,4.00
2022-10-15T05:25:22.769Z,4.00
2022-10-15T05:26:22.765Z,0.00
2022-10-15T05:27:25.778Z,4.00
2022-10-15T05:28:29.955Z,4.00
2022-10-15T05:29:22.784Z,4.00
2022-10-15T05:30:22.744Z,4.00
2022-10-15T05:31:29.877Z,4.00
2022-10-15T05:32:25.747Z,8.00
2022-10-15T05:33:22.923Z,8.00
2022-10-15T05:34:22.701Z,8.00
2022-10-15T05:35:22.703Z,12.00
2022-10-15T05:36:23.932Z,12.00
2022-10-15T05:37:26.131Z,12.00
2022-10-15T05:38:22.668Z,16.00
2022-10-15T05:39:22.631Z,16.00
2022-10-15T05:40:22.656Z,16.00
2022-10-15T05:41:23.639Z,12.00
2022-10-15T05:42:22.599Z,20.00
2022-10-15T05:43:25.623Z,20.00
2022-10-15T05:44:22.838Z,24.00
2022-10-15T05:45:22.601Z,28.00
2022-10-15T05:46:22.812Z,32.00
2022-10-15T05:47:22.805Z,36.00
2022-10-15T05:48:30.053Z,36.00
2022-10-15T05:49:22.761Z,36.00
2022-10-15T05:50:22.558Z,36.00
2022-10-15T05:51:22.512Z,36.00
2022-10-15T05:52:23.840Z,36.00
2022-10-15T05:53:22.754Z,40.00
2022-10-15T05:54:22.480Z,36.00
2022-10-15T05:55:22.726Z,36.00
2022-10-15T05:56:37.952Z,36.00
2022-10-15T05:57:22.695Z,40.00
2022-10-15T05:58:25.500Z,40.00
2022-10-15T05:59:37.688Z,44.00
2022-10-15T06:00:22.687Z,44.00
2022-10-15T06:01:23.673Z,40.00
2022-10-15T06:02:30.005Z,44.00
2022-10-15T06:03:22.386Z,48.00
2022-10-15T06:04:22.388Z,48.00
2022-10-15T06:05:22.650Z,48.00
2022-10-15T06:06:22.392Z,48.00
2022-10-15T06:07:25.516Z,48.00
2022-10-15T06:08:22.589Z,56.00
2022-10-15T06:09:22.337Z,52.00
2022-10-15T06:10:22.586Z,56.00
2022-10-15T06:11:25.338Z,64.00
2022-10-15T06:12:50.574Z,76.00
2022-10-15T06:13:22.299Z,80.00
2022-10-15T06:14:22.514Z,88.00
2022-10-15T06:15:23.301Z,96.00
2022-10-15T06:16:23.943Z,104.00
2022-10-15T06:17:22.627Z,112.00
2022-10-15T06:18:44.240Z,116.00
2022-10-15T06:19:25.278Z,120.00
2022-10-15T06:20:22.217Z,128.00
2022-10-15T06:21:22.473Z,140.00
2022-10-15T06:22:23.217Z,152.00
2022-10-15T06:23:25.460Z,168.00
2022-10-15T06:24:44.179Z,172.00
2022-10-15T06:25:22.403Z,172.00
2022-10-15T06:26:22.155Z,168.00
2022-10-15T06:27:22.441Z,164.00
2022-10-15T06:28:23.415Z,164.00
2022-10-15T06:29:22.115Z,180.00
2022-10-15T06:30:22.112Z,180.00
2022-10-15T06:31:29.224Z,204.00
2022-10-15T06:32:22.117Z,220.00
2022-10-15T06:33:22.325Z,228.00
2022-10-15T06:34:23.098Z,248.00
2022-10-15T06:35:22.276Z,240.00
2022-10-15T06:36:22.057Z,276.00
2022-10-15T06:37:22.569Z,236.00
2022-10-15T06:38:23.025Z,244.00
2022-10-15T06:39:23.029Z,232.00
2022-10-15T06:40:23.014Z,212.00
2022-10-15T06:41:22.224Z,180.00
2022-10-15T06:42:22.018Z,168.00
2022-10-15T06:43:22.994Z,148.00
2022-10-15T06:44:25.021Z,144.00
2022-10-15T06:45:23.000Z,168.00
2022-10-15T06:46:23.212Z,168.00
2022-10-15T06:47:29.228Z,188.00
2022-10-15T06:48:22.199Z,180.00
2022-10-15T06:49:22.167Z,200.00
2022-10-15T06:50:22.148Z,180.00
2022-10-15T06:51:22.137Z,236.00
2022-10-15T06:52:21.888Z,276.00
2022-10-15T06:53:22.904Z,316.00
2022-10-15T06:54:22.197Z,376.00
2022-10-15T06:55:24.866Z,524.00
2022-10-15T06:56:22.871Z,572.00
2022-10-15T06:57:22.289Z,576.00
2022-10-15T06:58:22.075Z,556.00
2022-10-15T06:59:22.053Z,596.00
2022-10-15T07:00:22.126Z,580.00
2022-10-15T07:01:21.793Z,604.00
2022-10-15T07:02:23.148Z,592.00
2022-10-15T07:03:24.782Z,588.00
2022-10-15T07:04:22.012Z,592.00
2022-10-15T07:05:21.792Z,612.00
2022-10-15T07:06:22.740Z,656.00
2022-10-15T07:07:21.959Z,692.00
2022-10-15T07:08:22.762Z,748.00
2022-10-15T07:09:21.931Z,756.00
2022-10-15T07:10:21.732Z,828.00
2022-10-15T07:11:24.720Z,892.00
2022-10-15T07:12:25.106Z,960.00
2022-10-15T07:13:21.900Z,940.00
2022-10-15T07:14:21.888Z,836.00
2022-10-15T07:15:21.914Z,764.00
2022-10-15T07:16:28.767Z,724.00
2022-10-15T07:17:22.641Z,732.00
2022-10-15T07:18:21.622Z,772.00
2022-10-15T07:19:22.634Z,872.00
2022-10-15T07:20:24.237Z,896.00
2022-10-15T07:21:21.648Z,884.00
2022-10-15T07:22:28.933Z,808.00
2022-10-15T07:23:24.172Z,744.00
2022-10-15T07:24:23.604Z,740.00
2022-10-15T07:25:21.789Z,796.00
2022-10-15T07:26:21.572Z,812.00
2022-10-15T07:27:22.545Z,864.00
2022-10-15T07:28:21.591Z,896.00
2022-10-15T07:29:24.534Z,884.00
2022-10-15T07:30:21.724Z,896.00
2022-10-15T07:31:21.740Z,900.00
2022-10-15T07:32:21.745Z,884.00
2022-10-15T07:33:21.702Z,848.00
2022-10-15T07:34:28.576Z,836.00
2022-10-15T07:35:22.466Z,868.00
2022-10-15T07:36:21.700Z,928.00
2022-10-15T07:37:28.773Z,920.00
2022-10-15T07:38:21.426Z,944.00
2022-10-15T07:39:21.626Z,1000.00
2022-10-15T07:40:22.422Z,1040.00
2022-10-15T07:41:21.603Z,1136.00
2022-10-15T07:42:21.408Z,1196.00
2022-10-15T07:43:21.358Z,1208.00
2022-10-15T07:44:28.868Z,1248.00
2022-10-15T07:45:21.345Z,1144.00
2022-10-15T07:46:21.555Z,1140.00
2022-10-15T07:47:21.528Z,1332.00
2022-10-15T07:48:21.342Z,1452.00
2022-10-15T07:49:21.533Z,1504.00
2022-10-15T07:50:24.643Z,1400.00
2022-10-15T07:51:21.308Z,1312.00
2022-10-15T07:52:21.453Z,1164.00
2022-10-15T07:53:22.697Z,1108.00
2022-10-15T07:54:24.285Z,1176.00
2022-10-15T07:55:21.481Z,1172.00
2022-10-15T07:56:21.456Z,988.00
2022-10-15T07:57:22.241Z,932.00
2022-10-15T07:58:21.460Z,924.00
2022-10-15T07:59:21.419Z,1100.00
2022-10-15T08:00:21.465Z,1480.00
2022-10-15T08:01:24.199Z,1756.00
2022-10-15T08:02:21.667Z,1904.00
2022-10-15T08:03:21.175Z,2160.00
2022-10-15T08:04:21.147Z,2040.00
2022-10-15T08:05:24.186Z,1900.00
2022-10-15T08:06:22.171Z,2012.00
2022-10-15T08:07:21.120Z,2076.00
2022-10-15T08:08:42.122Z,1896.00
2022-10-15T08:09:21.104Z,2368.00
2022-10-15T08:10:21.102Z,2376.00
2022-10-15T08:11:22.087Z,2108.00
2022-10-15T08:12:22.383Z,2236.00
2022-10-15T08:13:22.076Z,2536.00
2022-10-15T08:14:21.062Z,2076.00
2022-10-15T08:15:21.070Z,2016.00
2022-10-15T08:16:22.021Z,2024.00
2022-10-15T08:17:21.017Z,1960.00
2022-10-15T08:18:24.266Z,1976.00
2022-10-15T08:19:21.240Z,1856.00
2022-10-15T08:20:21.236Z,1788.00
2022-10-15T08:21:20.960Z,2096.00
2022-10-15T08:22:21.138Z,2300.00
2022-10-15T08:23:20.951Z,1660.00
2022-10-15T08:24:20.992Z,1924.00
2022-10-15T08:25:20.933Z,2068.00
2022-10-15T08:26:21.933Z,2176.00
2022-10-15T08:27:36.266Z,2548.00
2022-10-15T08:28:21.193Z,2504.00
2022-10-15T08:29:21.125Z,2304.00
2022-10-15T08:30:21.133Z,2160.00
2022-10-15T08:31:20.884Z,2024.00
2022-10-15T08:32:21.135Z,1800.00
2022-10-15T08:33:23.903Z,1916.00
2022-10-15T08:34:24.092Z,2228.00
2022-10-15T08:35:20.880Z,2300.00
2022-10-15T08:36:21.048Z,2556.00
2022-10-15T08:37:20.808Z,2928.00
2022-10-15T08:38:22.039Z,3784.00
2022-10-15T08:39:24.064Z,4404.00
2022-10-15T08:40:21.037Z,3724.00
2022-10-15T08:41:20.797Z,4100.00
2022-10-15T08:42:22.464Z,5100.00
2022-10-15T08:43:27.840Z,4384.00
2022-10-15T08:44:20.738Z,4056.00
2022-10-15T08:45:20.734Z,3172.00
2022-10-15T08:46:20.748Z,3032.00
2022-10-15T08:47:20.791Z,2336.00
2022-10-15T08:48:20.917Z,2160.00
2022-10-15T08:49:20.687Z,2604.00
2022-10-15T08:50:20.682Z,2716.00
2022-10-15T08:51:21.955Z,2800.00
2022-10-15T08:52:20.960Z,2912.00
2022-10-15T08:53:20.641Z,3580.00
2022-10-15T08:54:28.032Z,3264.00
2022-10-15T08:56:20.842Z,2552.00
2022-10-15T08:57:20.676Z,1824.00
2022-10-15T08:58:20.617Z,2140.00
2022-10-15T08:59:20.589Z,1780.00
2022-10-15T09:00:23.613Z,1664.00
2022-10-15T09:01:21.825Z,2052.00
2022-10-15T09:02:20.790Z,1608.00
2022-10-15T09:03:41.544Z,1764.00
2022-10-15T09:04:21.588Z,2084.00
2022-10-15T09:05:20.548Z,2608.00
2022-10-15T09:06:27.661Z,3704.00
2022-10-15T09:07:20.679Z,4352.00
2022-10-15T09:08:20.740Z,6168.00
2022-10-15T09:09:20.726Z,5464.00
2022-10-15T09:10:20.731Z,5648.00
2022-10-15T09:11:20.692Z,4472.00
2022-10-15T09:12:20.461Z,4572.00
2022-10-15T09:13:21.501Z,4416.00
2022-10-15T09:14:20.685Z,4300.00
2022-10-15T09:15:23.908Z,3948.00
2022-10-15T09:16:21.633Z,3552.00
2022-10-15T09:17:20.701Z,2760.00
2022-10-15T09:18:20.401Z,3040.00
2022-10-15T09:19:27.679Z,2792.00
2022-10-15T09:20:20.601Z,2256.00
2022-10-15T09:21:21.118Z,3948.00
2022-10-15T09:22:20.372Z,2896.00
2022-10-15T09:23:20.365Z,2644.00
2022-10-15T09:24:21.551Z,2724.00
2022-10-15T09:25:21.334Z,3436.00
2022-10-15T09:26:20.318Z,2576.00
2022-10-15T09:27:20.661Z,2464.00
2022-10-15T09:28:20.523Z,1404.00
2022-10-15T09:29:20.273Z,1324.00
2022-10-15T09:30:20.274Z,1548.00
2022-10-15T09:31:20.278Z,1284.00
2022-10-15T09:32:20.238Z,1164.00
2022-10-15T09:33:20.282Z,1480.00
2022-10-15T09:34:20.218Z,1304.00
2022-10-15T09:35:20.216Z,1176.00
2022-10-15T09:36:21.205Z,1480.00
2022-10-15T09:37:20.216Z,2648.00
2022-10-15T09:38:20.447Z,2436.00
2022-10-15T09:39:20.397Z,2412.00
2022-10-15T09:40:23.458Z,2204.00
2022-10-15T09:41:21.385Z,1576.00
2022-10-15T09:42:20.149Z,2252.00
2022-10-15T09:43:35.386Z,2576.00
2022-10-15T09:44:21.249Z,1912.00
2022-10-15T09:45:23.126Z,1540.00
2022-10-15T09:46:23.116Z,1400.00
2022-10-15T09:47:20.096Z,1204.00
2022-10-15T09:48:20.313Z,1120.00
2022-10-15T09:49:20.111Z,1652.00
2022-10-15T09:50:27.310Z,1288.00
2022-10-15T09:51:20.278Z,976.00
2022-10-15T09:52:20.057Z,1332.00
2022-10-15T09:53:24.474Z,1080.00
2022-10-15T09:54:21.074Z,1092.00
2022-10-15T09:55:20.018Z,1368.00
2022-10-15T09:56:20.011Z,1616.00
2022-10-15T09:57:21.263Z,1924.00
2022-10-15T09:58:19.960Z,2072.00
2022-10-15T09:59:20.284Z,1764.00
2022-10-15T10:00:20.298Z,1964.00
2022-10-15T10:01:20.944Z,2028.00
2022-10-15T10:02:21.057Z,2652.00
2022-10-15T10:03:19.909Z,2832.00
2022-10-15T10:04:19.976Z,2192.00
2022-10-15T10:05:19.894Z,2208.00
2022-10-15T10:06:20.902Z,2572.00
2022-10-15T10:07:20.883Z,2508.00
2022-10-15T10:08:20.122Z,2252.00
2022-10-15T10:09:20.096Z,2280.00
2022-10-15T10:10:20.144Z,2536.00
2022-10-15T10:11:20.885Z,2760.00
2022-10-15T10:12:27.107Z,2708.00
2022-10-15T10:13:23.082Z,2304.00
2022-10-15T10:14:20.846Z,2728.00
2022-10-15T10:15:19.832Z,2192.00
2022-10-15T10:16:19.781Z,1888.00
2022-10-15T10:17:19.776Z,2108.00
2022-10-15T10:18:20.791Z,1664.00
2022-10-15T10:19:21.011Z,1524.00
2022-10-15T10:20:19.788Z,1904.00
2022-10-15T10:21:19.997Z,2184.00
2022-10-15T10:22:21.188Z,2032.00
2022-10-15T10:23:22.744Z,1764.00
2022-10-15T10:24:19.697Z,1800.00
2022-10-15T10:25:19.959Z,1868.00
2022-10-15T10:26:20.740Z,1876.00
2022-10-15T10:27:19.904Z,1908.00
2022-10-15T10:28:20.815Z,2348.00
2022-10-15T10:29:32.964Z,2864.00
2022-10-15T10:30:20.668Z,3348.00
2022-10-15T10:31:19.642Z,2824.00
2022-10-15T10:32:26.823Z,2488.00
2022-10-15T10:33:19.605Z,2752.00
2022-10-15T10:34:19.843Z,2744.00
2022-10-15T10:35:19.655Z,2648.00
2022-10-15T10:36:22.626Z,2960.00
2022-10-15T10:37:19.571Z,3000.00
2022-10-15T10:38:20.564Z,2180.00
2022-10-15T10:39:19.575Z,1988.00
2022-10-15T10:40:19.535Z,2232.00
2022-10-15T10:41:19.800Z,2424.00
2022-10-15T10:42:19.734Z,2400.00
2022-10-15T10:43:19.767Z,1564.00
2022-10-15T10:44:19.500Z,1600.00
2022-10-15T10:45:19.573Z,1972.00
2022-10-15T10:46:19.497Z,2944.00
2022-10-15T10:47:19.480Z,2612.00
2022-10-15T10:48:19.468Z,2820.00
2022-10-15T10:49:22.478Z,2072.00
2022-10-15T10:50:22.506Z,1792.00
2022-10-15T10:51:40.449Z,2388.00
2022-10-15T10:52:19.657Z,2244.00
2022-10-15T10:53:20.431Z,1468.00
2022-10-15T10:54:19.629Z,1376.00
2022-10-15T10:55:19.389Z,1804.00
2022-10-15T10:56:19.602Z,2464.00
2022-10-15T10:57:19.401Z,2192.00
2022-10-15T10:58:22.104Z,1968.00
2022-10-15T10:59:27.568Z,1656.00
2022-10-15T11:00:22.348Z,1236.00
2022-10-15T11:01:22.623Z,1416.00
2022-10-15T11:02:19.571Z,2384.00
2022-10-15T11:03:19.344Z,2088.00
2022-10-15T11:04:20.549Z,1664.00
2022-10-15T11:05:19.308Z,1680.00
2022-10-15T11:06:19.270Z,1788.00
2022-10-15T11:07:19.563Z,2080.00
2022-10-15T11:08:22.532Z,2396.00
2022-10-15T11:09:19.245Z,2520.00
2022-10-15T11:10:19.240Z,1636.00
2022-10-15T11:11:22.256Z,2012.00
2022-10-15T11:12:19.468Z,2484.00
2022-10-15T11:13:19.210Z,2364.00
2022-10-15T11:14:20.222Z,2172.00
2022-10-15T11:15:19.175Z,2612.00
2022-10-15T11:16:22.446Z,3084.00
2022-10-15T11:17:19.393Z,2724.00
2022-10-15T11:18:19.176Z,1656.00
2022-10-15T11:19:41.574Z,1636.00
2022-10-15T11:20:32.141Z,2032.00
2022-10-15T11:21:20.364Z,1424.00
2022-10-15T11:23:20.654Z,1656.00
2022-10-15T11:24:22.368Z,2032.00
2022-10-15T11:25:19.312Z,1912.00
2022-10-15T11:26:19.053Z,1352.00
2022-10-15T11:27:19.065Z,1496.00
2022-10-15T11:28:20.342Z,1628.00
2022-10-15T11:29:19.049Z,1580.00
2022-10-15T11:30:19.246Z,1284.00
2022-10-15T11:32:25.599Z,1528.00
2022-10-15T11:33:22.264Z,1932.00
2022-10-15T11:34:19.009Z,3168.00
2022-10-15T11:35:48.341Z,2128.00
2022-10-15T11:36:20.218Z,1600.00
2022-10-15T11:37:21.996Z,1588.00
2022-10-15T11:38:19.945Z,1948.00
2022-10-15T11:39:22.218Z,2440.00
2022-10-15T11:40:19.005Z,3052.00
2022-10-15T11:41:20.166Z,3944.00
2022-10-15T11:42:20.161Z,3840.00
2022-10-15T11:43:18.886Z,3188.00
2022-10-15T11:44:22.139Z,3016.00
2022-10-15T11:45:18.913Z,3036.00
2022-10-15T11:46:18.881Z,3172.00
2022-10-15T11:47:19.096Z,3824.00
2022-10-15T11:48:19.867Z,3340.00
2022-10-15T11:49:18.827Z,2556.00
2022-10-15T11:50:18.880Z,2496.00
2022-10-15T11:51:18.814Z,3256.00
2022-10-15T11:52:18.802Z,3228.00
2022-10-15T11:53:19.053Z,2920.00
2022-10-15T11:54:21.810Z,2768.00
2022-10-15T11:55:19.037Z,1272.00
2022-10-15T11:56:19.023Z,892.00
2022-10-15T11:57:18.970Z,1616.00
2022-10-15T11:58:18.753Z,2424.00
2022-10-15T11:59:18.749Z,2852.00
2022-10-15T12:00:25.810Z,3360.00
2022-10-15T12:01:19.711Z,3456.00
2022-10-15T12:02:18.720Z,3168.00
2022-10-15T12:03:19.944Z,3640.00
2022-10-15T12:04:18.967Z,4468.00
2022-10-15T12:05:18.677Z,5092.00
2022-10-15T12:06:18.676Z,5912.00
2022-10-15T12:07:18.671Z,5132.00
2022-10-15T12:08:19.913Z,4500.00
2022-10-15T12:09:18.608Z,3164.00
2022-10-15T12:10:21.653Z,1924.00
2022-10-15T12:11:18.609Z,2832.00
2022-10-15T12:12:18.636Z,1856.00
2022-10-15T12:13:18.596Z,2220.00
2022-10-15T12:14:19.597Z,3896.00
2022-10-15T12:15:18.832Z,2536.00
2022-10-15T12:16:18.569Z,2628.00
2022-10-15T12:17:18.794Z,2580.00
2022-10-15T12:18:18.545Z,2264.00
2022-10-15T12:19:19.549Z,2564.00
2022-10-15T12:20:21.794Z,2284.00
2022-10-15T12:21:25.586Z,2024.00
2022-10-15T12:22:28.693Z,1748.00
2022-10-15T12:23:19.744Z,1604.00
2022-10-15T12:24:18.696Z,1768.00
2022-10-15T12:25:39.456Z,1660.00
2022-10-15T12:26:18.458Z,1692.00
2022-10-15T12:27:18.753Z,1556.00
2022-10-15T12:28:21.531Z,1420.00
2022-10-15T12:29:18.446Z,1536.00
2022-10-15T12:30:19.433Z,1668.00
2022-10-15T12:31:18.446Z,1620.00
2022-10-15T12:32:18.624Z,1400.00
2022-10-15T12:33:21.424Z,1212.00
2022-10-15T12:34:18.621Z,1272.00
2022-10-15T12:35:18.661Z,1440.00
2022-10-15T12:36:19.385Z,1236.00
2022-10-15T12:37:19.351Z,1676.00
2022-10-15T12:38:18.574Z,1848.00
2022-10-15T12:39:33.579Z,1832.00
2022-10-15T12:40:19.336Z,1652.00
2022-10-15T12:41:25.456Z,1664.00
2022-10-15T12:42:18.337Z,1364.00
2022-10-15T12:43:18.281Z,1160.00
2022-10-15T12:44:18.551Z,924.00
2022-10-15T12:45:18.495Z,944.00
2022-10-15T12:46:33.920Z,1176.00